Time;durP1;ratioP1;P1;durP2;ratioP2;P2;SDS_P1;SDS_P2;PMS_P1;PMS_P2;Temp;Humidity;BMP_temperature;BMP_pressure;BME280_temperature;BME280_humidity;BME280_pressure;Samples;Min_cycle;Max_cycle;Signal;HPM_P1;HPM_P2
2022/06/07 00:01:08;;;;;;;2.08;1.65;;;14.30;99.90;;;;;;5074972;28;20035;-85
2022/06/07 00:03:34;;;;;;;6.28;1.98;;;14.30;99.90;;;;;;5093185;28;20613;-85
2022/06/07 00:05:59;;;;;;;4.95;1.85;;;14.30;99.90;;;;;;5093049;28;20040;-86
2022/06/07 00:08:27;;;;;;;6.47;1.90;;;14.20;99.90;;;;;;5076337;28;20060;-85
2022/06/07 00:10:53;;;;;;;5.03;1.92;;;14.20;99.90;;;;;;5076336;28;20036;-85
2022/06/07 00:13:19;;;;;;;3.55;2.10;;;14.10;99.90;;;;;;5076095;28;20127;-85
2022/06/07 00:15:45;;;;;;;4.15;2.05;;;14.10;99.90;;;;;;5092772;28;20111;-85
2022/06/07 00:18:12;;;;;;;2.67;1.77;;;14.00;99.90;;;;;;5093935;28;20514;-85
2022/06/07 00:20:39;;;;;;;3.72;1.70;;;14.10;99.90;;;;;;5075266;28;20032;-85
2022/06/07 00:23:09;;;;;;;2.47;1.60;;;14.10;99.90;;;;;;5075944;28;20024;-85
2022/06/07 00:25:35;;;;;;;6.63;2.00;;;14.20;99.90;;;;;;5092250;28;20031;-85
2022/06/07 00:28:01;;;;;;;2.35;1.40;;;14.20;99.90;;;;;;5075021;28;20494;-85
2022/06/07 00:30:28;;;;;;;3.90;1.77;;;14.20;99.90;;;;;;5075430;28;20044;-85
2022/06/07 00:32:54;;;;;;;3.55;1.60;;;14.30;99.90;;;;;;5092332;28;20047;-85
2022/06/07 00:35:21;;;;;;;3.75;1.40;;;14.40;99.90;;;;;;5075255;28;20039;-85
2022/06/07 00:37:47;;;;;;;2.22;1.30;;;14.40;99.90;;;;;;5075197;28;20524;-84
2022/06/07 00:40:14;;;;;;;5.88;1.42;;;14.40;99.90;;;;;;5092101;28;20032;-85
2022/06/07 00:42:41;;;;;;;2.42;1.20;;;14.40;99.90;;;;;;5075136;28;20032;-85
2022/06/07 00:45:13;;;;;;;5.35;1.50;;;14.40;99.90;;;;;;5092128;28;20047;-85
2022/06/07 00:47:39;;;;;;;1.27;1.17;;;14.40;99.90;;;;;;5075323;28;20081;-85
2022/06/07 00:50:12;;;;;;;3.85;1.30;;;14.40;99.90;;;;;;5091811;28;20035;-85
2022/06/07 00:52:38;;;;;;;2.67;1.35;;;14.40;99.90;;;;;;5091850;28;20028;-85
2022/06/07 00:55:07;;;;;;;3.10;1.33;;;14.30;99.90;;;;;;5075085;28;20028;-85
2022/06/07 00:57:45;;;;;;;2.08;1.20;;;14.30;99.90;;;;;;5076974;28;20059;-84
2022/06/07 01:00:19;;;;;;;3.47;1.40;;;14.30;99.90;;;;;;5092336;28;20031;-85
2022/06/07 01:02:47;;;;;;;1.63;0.98;;;14.30;99.90;;;;;;5075495;28;20403;-85
2022/06/07 01:05:12;;;;;;;3.67;1.40;;;14.30;99.90;;;;;;5075071;28;20034;-85
2022/06/07 01:10:44;;;;;;;2.00;1.33;;;14.30;99.90;;;;;;5092071;28;20032;-85
2022/06/07 01:13:19;;;;;;;2.20;1.35;;;14.30;99.90;;;;;;5091317;28;20031;-85
2022/06/07 01:15:46;;;;;;;4.03;1.33;;;14.30;99.90;;;;;;5091424;28;20134;-85
2022/06/07 01:18:16;;;;;;;3.80;1.40;;;14.30;99.90;;;;;;5091581;28;20053;-85
2022/06/07 01:20:43;;;;;;;4.93;1.50;;;14.20;99.90;;;;;;5074755;28;20027;-85
2022/06/07 01:23:08;;;;;;;2.85;1.63;;;14.20;99.90;;;;;;5091347;28;20037;-85
2022/06/07 01:25:36;;;;;;;5.43;1.77;;;14.10;99.90;;;;;;5074883;28;20094;-85
2022/06/07 01:28:03;;;;;;;2.20;1.60;;;14.10;99.90;;;;;;5075062;28;20070;-85
2022/06/07 01:30:29;;;;;;;2.08;1.75;;;14.00;99.90;;;;;;5075214;28;20031;-86
2022/06/07 01:32:56;;;;;;;3.63;1.85;;;14.00;99.90;;;;;;5074913;28;20059;-86
2022/06/07 01:35:22;;;;;;;4.85;1.77;;;13.90;99.90;;;;;;5074939;28;20046;-86
2022/06/07 01:37:48;;;;;;;4.45;1.92;;;13.80;99.90;;;;;;5091413;28;20028;-87
2022/06/07 01:42:58;;;;;;;3.72;2.20;;;13.50;99.90;;;;;;5091892;28;20043;-87
2022/06/07 01:45:24;;;;;;;4.38;2.20;;;13.30;99.90;;;;;;5074810;28;20032;-86
2022/06/07 01:47:50;;;;;;;6.57;2.47;;;13.10;99.90;;;;;;5091449;28;20028;-85
2022/06/07 01:50:17;;;;;;;3.22;2.20;;;13.00;99.90;;;;;;5074818;28;20363;-84
2022/06/07 01:52:43;;;;;;;11.00;2.60;;;12.80;99.90;;;;;;5073968;28;20036;-85
2022/06/07 01:55:29;;;;;;;5.50;2.85;;;12.70;99.90;;;;;;5076953;28;20043;-85
2022/06/07 01:58:05;;;;;;;3.83;3.05;;;12.60;99.90;;;;;;5074840;28;20036;-85
2022/06/07 02:00:32;;;;;;;5.20;3.00;;;12.50;99.90;;;;;;5074013;28;20036;-84
2022/06/07 02:02:58;;;;;;;5.82;2.97;;;12.30;99.90;;;;;;5092284;28;20031;-84
2022/06/07 02:05:25;;;;;;;4.47;3.25;;;12.30;99.90;;;;;;5074285;28;20028;-85
2022/06/07 02:07:55;;;;;;;;;;;12.20;99.90;;;;;;5075545;28;20145;-85
2022/06/07 02:10:28;;;;;;;6.88;3.10;;;12.20;99.90;;;;;;5075728;28;19908;-85
2022/06/07 02:12:56;;;;;;;5.47;3.25;;;12.20;99.90;;;;;;5074917;28;20067;-85
2022/06/07 02:15:21;;;;;;;5.43;3.50;;;12.20;99.90;;;;;;5074355;28;20059;-85
2022/06/07 02:17:47;;;;;;;9.57;3.42;;;12.10;99.90;;;;;;5074389;28;20020;-85
2022/06/07 02:20:29;;;;;;;6.07;3.55;;;12.10;99.90;;;;;;5076726;28;20031;-86
2022/06/07 02:22:55;;;;;;;4.45;3.75;;;12.10;99.90;;;;;;5074242;28;20024;-85
2022/06/07 02:25:20;;;;;;;9.05;4.35;;;12.10;99.90;;;;;;5093751;28;20399;-85
2022/06/07 02:27:46;;;;;;;18.23;4.25;;;12.20;99.90;;;;;;5078173;28;20181;-85
2022/06/07 02:30:12;;;;;;;10.20;4.20;;;12.10;99.90;;;;;;5078397;28;20146;-86
2022/06/07 02:32:39;;;;;;;5.35;3.55;;;12.20;99.90;;;;;;5078064;28;20028;-86
2022/06/07 02:35:06;;;;;;;5.82;3.88;;;12.20;99.90;;;;;;5078101;28;20116;-86
2022/06/07 02:37:33;;;;;;;7.93;3.70;;;12.20;99.90;;;;;;5078391;28;20062;-87
2022/06/07 02:39:59;;;;;;;6.20;3.58;;;12.30;99.90;;;;;;5095321;28;20036;-87
2022/06/07 02:42:27;;;;;;;7.57;3.97;;;12.30;99.90;;;;;;5078192;28;20028;-86
2022/06/07 02:44:53;;;;;;;5.60;3.58;;;12.20;99.90;;;;;;5095083;28;20035;-87
2022/06/07 02:47:19;;;;;;;6.22;4.18;;;12.30;99.90;;;;;;5078507;28;20032;-86
2022/06/07 02:49:52;;;;;;;7.22;4.22;;;12.30;99.90;;;;;;5095054;28;20069;-86
2022/06/07 02:52:19;;;;;;;6.88;3.67;;;12.40;99.90;;;;;;5095064;28;20044;-86
2022/06/07 02:54:52;;;;;;;5.97;3.90;;;12.40;99.90;;;;;;5078468;28;20035;-86
2022/06/07 02:57:18;;;;;;;6.10;4.15;;;12.40;99.90;;;;;;5077944;28;20043;-85
2022/06/07 03:03:33;;;;;;;7.05;3.92;;;12.40;99.90;;;;;;5096568;28;20081;-86
2022/06/07 03:05:59;;;;;;;8.65;3.92;;;12.40;99.90;;;;;;5077319;28;20032;-86
2022/06/07 03:08:26;;;;;;;6.55;3.90;;;12.40;99.90;;;;;;5078005;28;20028;-86
2022/06/07 03:10:58;;;;;;;10.63;5.20;;;12.40;99.90;;;;;;5078712;28;20032;-86
2022/06/07 03:13:25;;;;;;;10.25;4.72;;;12.40;99.90;;;;;;5077571;28;20395;-86
2022/06/07 03:15:52;;;;;;;6.53;5.03;;;12.40;99.90;;;;;;5077588;28;20028;-86
2022/06/07 03:18:21;;;;;;;13.38;5.95;;;12.40;99.90;;;;;;5077718;28;20098;-86
2022/06/07 03:20:52;;;;;;;8.55;5.00;;;12.40;99.90;;;;;;5094325;28;20684;-86
2022/06/07 03:23:19;;;;;;;7.30;4.97;;;12.40;99.90;;;;;;5077395;28;20028;-85
2022/06/07 03:25:51;;;;;;;8.63;5.53;;;12.40;99.90;;;;;;5078422;28;20032;-85
2022/06/07 03:28:18;;;;;;;12.10;7.60;;;12.40;99.90;;;;;;5094128;28;20115;-85
2022/06/07 03:30:45;;;;;;;12.25;6.00;;;12.40;99.90;;;;;;5077372;28;20024;-85
2022/06/07 03:33:18;;;;;;;13.10;7.40;;;12.40;99.90;;;;;;5077833;28;20024;-85
2022/06/07 03:35:44;;;;;;;9.05;5.82;;;12.40;99.90;;;;;;5076695;28;20055;-85
2022/06/07 03:38:10;;;;;;;7.65;5.38;;;12.40;99.90;;;;;;5076914;28;20054;-85
2022/06/07 03:40:44;;;;;;;10.18;6.45;;;12.30;99.90;;;;;;5092879;28;20027;-84
2022/06/07 03:43:13;;;;;;;5.47;4.38;;;12.30;99.90;;;;;;5076640;28;20032;-85
2022/06/07 03:45:41;;;;;;;4.82;3.88;;;12.30;99.90;;;;;;5076946;28;20081;-85
2022/06/07 03:48:11;;;;;;;7.55;4.15;;;12.20;99.90;;;;;;5093854;28;20117;-84
2022/06/07 03:50:37;;;;;;;7.07;4.05;;;12.20;99.90;;;;;;5093858;28;20032;-85
2022/06/07 03:53:05;;;;;;;9.20;4.32;;;12.30;99.90;;;;;;5077160;28;20124;-85
2022/06/07 03:55:31;;;;;;;5.30;3.83;;;12.30;99.90;;;;;;5076929;28;20032;-84
2022/06/07 03:58:06;;;;;;;5.78;4.07;;;12.40;99.90;;;;;;5078277;28;20039;-84
2022/06/07 04:00:32;;;;;;;6.43;3.97;;;12.40;99.90;;;;;;5076200;28;20542;-85
2022/06/07 04:03:00;;;;;;;7.65;3.92;;;12.40;99.90;;;;;;5076269;28;20024;-84
2022/06/07 04:05:26;;;;;;;8.65;4.40;;;12.50;99.90;;;;;;5075991;28;20077;-84
2022/06/07 04:08:12;;;;;;;7.00;3.72;;;12.50;99.90;;;;;;5075849;28;20028;-85
2022/06/07 04:10:48;;;;;;;4.55;3.22;;;12.50;99.90;;;;;;5076921;28;20548;-84
2022/06/07 04:13:17;;;;;;;6.28;3.70;;;12.50;99.90;;;;;;5092392;28;20115;-85
2022/06/07 04:15:43;;;;;;;5.30;3.13;;;12.60;99.90;;;;;;5075845;28;20180;-84
2022/06/07 04:18:11;;;;;;;5.72;2.97;;;12.60;99.90;;;;;;5094679;28;20078;-85
2022/06/07 04:20:37;;;;;;;7.35;3.45;;;12.60;99.90;;;;;;5076341;28;20028;-84
2022/06/07 04:23:04;;;;;;;5.15;2.85;;;12.60;99.90;;;;;;5076108;28;20062;-84
2022/06/07 04:25:36;;;;;;;7.38;3.00;;;12.70;99.90;;;;;;5076674;28;20032;-84
2022/06/07 04:28:03;;;;;;;7.88;3.08;;;12.60;99.90;;;;;;5092945;28;20036;-84
2022/06/07 04:30:31;;;;;;;9.25;2.97;;;12.70;99.90;;;;;;5076053;28;20043;-84
2022/06/07 04:33:01;;;;;;;8.38;3.03;;;12.70;99.90;;;;;;5092263;28;20028;-84
2022/06/07 04:35:28;;;;;;;5.88;2.97;;;12.70;99.90;;;;;;5075284;28;20378;-84
2022/06/07 04:37:59;;;;;;;4.03;3.40;;;12.70;99.90;;;;;;5076349;28;20028;-84
2022/06/07 04:40:31;;;;;;;8.00;3.08;;;12.70;99.90;;;;;;5076749;28;20077;-83
2022/06/07 04:42:58;;;;;;;5.32;3.30;;;12.80;99.90;;;;;;5075840;28;20028;-84
2022/06/07 04:45:28;;;;;;;5.22;3.10;;;12.90;99.90;;;;;;5076252;28;20147;-84
2022/06/07 04:48:08;;;;;;;5.53;3.05;;;13.10;99.90;;;;;;5076655;28;20040;-84
2022/06/07 04:50:40;;;;;;;7.45;3.40;;;13.20;99.90;;;;;;5091915;28;20035;-85
2022/06/07 04:53:07;;;;;;;6.90;3.30;;;13.30;99.90;;;;;;5075459;28;20166;-85
2022/06/07 04:55:32;;;;;;;6.53;3.40;;;13.30;99.90;;;;;;5091687;28;20115;-84
2022/06/07 04:58:00;;;;;;;5.55;4.38;;;13.30;99.90;;;;;;5075442;28;20020;-84
2022/06/07 05:00:26;;;;;;;3.63;3.30;;;13.30;99.90;;;;;;5091900;28;20115;-85
2022/06/07 05:02:59;;;;;;;3.88;3.30;;;13.30;99.90;;;;;;5075883;28;20028;-84
2022/06/07 05:05:25;;;;;;;6.35;3.58;;;13.30;99.90;;;;;;5092033;28;20035;-84
2022/06/07 05:07:52;;;;;;;3.75;3.08;;;13.30;99.90;;;;;;5075308;28;20115;-85
2022/06/07 05:10:21;;;;;;;7.90;3.25;;;13.30;99.90;;;;;;5075698;28;20046;-84
2022/06/07 05:12:56;;;;;;;6.78;3.22;;;13.20;99.90;;;;;;5091742;28;20032;-84
2022/06/07 05:15:27;;;;;;;8.13;3.85;;;13.00;99.90;;;;;;5091731;28;20682;-84
2022/06/07 05:17:58;;;;;;;5.95;3.78;;;12.90;99.90;;;;;;5075726;28;20024;-84
2022/06/07 05:20:25;;;;;;;5.00;3.78;;;12.90;99.90;;;;;;5074989;28;20058;-85
2022/06/07 05:23:00;;;;;;;7.50;3.65;;;12.90;99.90;;;;;;5091549;28;20052;-84
2022/06/07 05:25:26;;;;;;;8.27;3.80;;;13.00;99.90;;;;;;5074259;28;20074;-85
2022/06/07 05:27:53;;;;;;;4.47;3.88;;;13.00;99.90;;;;;;5075123;28;20063;-84
2022/06/07 05:30:26;;;;;;;8.77;3.80;;;13.10;99.90;;;;;;5076280;28;20027;-83
2022/06/07 05:33:11;;;;;;;6.82;4.20;;;13.10;99.90;;;;;;5091503;28;20365;-84
2022/06/07 05:35:45;;;;;;;11.25;4.55;;;13.10;99.90;;;;;;5091894;28;20447;-83
2022/06/07 05:38:15;;;;;;;8.35;4.57;;;13.10;99.90;;;;;;5075131;28;20070;-84
2022/06/07 05:40:44;;;;;;;6.55;3.92;;;13.10;99.90;;;;;;5075022;28;20032;-84
2022/06/07 05:43:14;;;;;;;9.88;3.63;;;13.20;99.90;;;;;;5091302;28;20479;-84
2022/06/07 05:45:53;;;;;;;4.77;3.70;;;13.20;99.90;;;;;;5091221;28;20927;-84
2022/06/07 05:48:26;;;;;;;5.53;4.00;;;13.30;99.90;;;;;;5075941;28;20667;-84
2022/06/07 05:50:52;;;;;;;6.78;4.05;;;13.30;99.90;;;;;;5074733;28;20031;-84
2022/06/07 05:53:23;;;;;;;7.47;3.63;;;13.40;99.90;;;;;;5091268;28;20073;-84
2022/06/07 05:55:49;;;;;;;4.63;3.85;;;13.50;99.90;;;;;;5074714;28;20463;-84
2022/06/07 05:58:16;;;;;;;9.30;4.13;;;13.50;99.90;;;;;;5074961;28;20494;-84
2022/06/07 06:00:42;;;;;;;5.38;3.63;;;13.60;99.90;;;;;;5078320;28;20028;-84
2022/06/07 06:03:10;;;;;;;5.75;3.63;;;13.60;99.90;;;;;;5095163;28;20028;-84
2022/06/07 06:05:47;;;;;;;7.60;3.77;;;13.70;99.90;;;;;;5078594;28;20020;-84
2022/06/07 06:11:15;;;;;;;6.35;3.40;;;13.90;99.90;;;;;;5095277;28;20078;-84
2022/06/07 06:13:49;;;;;;;6.22;2.70;;;14.00;99.90;;;;;;5078972;28;20032;-85
2022/06/07 06:16:38;;;;;;;5.95;3.20;;;14.10;99.90;;;;;;5094878;28;20035;-84
2022/06/07 06:19:06;;;;;;;7.75;3.35;;;14.20;99.90;;;;;;5078684;28;20036;-84
2022/06/07 06:21:41;;;;;;;6.38;3.22;;;14.20;99.90;;;;;;5079022;28;20028;-83
2022/06/07 06:24:11;;;;;;;4.55;3.38;;;14.30;99.90;;;;;;5078184;28;20491;-83
2022/06/07 06:26:38;;;;;;;6.15;3.40;;;14.30;99.90;;;;;;5096364;28;20387;-84
2022/06/07 06:29:09;;;;;;;5.70;3.10;;;14.30;99.90;;;;;;5078281;28;20082;-83
2022/06/07 06:31:39;;;;;;;4.15;2.75;;;14.40;99.90;;;;;;5095169;28;20081;-83
2022/06/07 06:34:06;;;;;;;7.75;3.20;;;14.40;99.90;;;;;;5077995;28;20540;-83
2022/06/07 06:36:31;;;;;;;5.53;3.30;;;14.50;99.90;;;;;;5077088;28;20044;-84
2022/06/07 06:39:00;;;;;;;4.15;2.88;;;14.60;99.90;;;;;;5078019;28;20057;-84
2022/06/07 06:41:32;;;;;;;9.50;3.28;;;14.70;99.90;;;;;;5078010;28;20032;-83
2022/06/07 06:44:01;;;;;;;9.00;2.45;;;14.70;99.90;;;;;;5077656;28;20050;-84
2022/06/07 06:46:48;;;;;;;5.47;3.10;;;14.80;99.90;;;;;;5094597;28;20138;-84
2022/06/07 06:49:18;;;;;;;6.45;3.05;;;14.90;99.90;;;;;;5078864;28;20028;-83
2022/06/07 06:51:46;;;;;;;3.40;2.47;;;15.00;99.90;;;;;;5094640;28;20034;-84
2022/06/07 06:54:15;;;;;;;5.22;2.90;;;15.00;99.90;;;;;;5094818;28;20035;-84
2022/06/07 06:56:51;;;;;;;4.60;3.08;;;15.10;99.90;;;;;;5094748;28;20122;-84
2022/06/07 06:59:22;;;;;;;7.93;3.00;;;15.40;99.90;;;;;;5078659;28;20053;-83
2022/06/07 07:01:54;;;;;;;3.47;2.50;;;15.50;99.90;;;;;;5078137;28;20475;-85
2022/06/07 07:04:24;;;;;;;8.20;2.22;;;15.50;99.90;;;;;;5077969;28;20064;-83
2022/06/07 07:06:52;;;;;;;7.75;2.92;;;15.70;99.90;;;;;;5077717;28;20031;-84
2022/06/07 07:09:26;;;;;;;9.43;3.70;;;15.80;99.90;;;;;;5077944;28;20051;-84
2022/06/07 07:11:54;;;;;;;5.55;2.30;;;16.00;99.90;;;;;;5077407;28;20028;-85
2022/06/07 07:14:31;;;;;;;9.23;3.20;;;16.30;99.90;;;;;;5094104;28;20043;-85
2022/06/07 07:16:58;;;;;;;5.43;2.03;;;16.90;99.90;;;;;;5077723;28;20028;-85
2022/06/07 07:19:24;;;;;;;5.95;2.10;;;17.50;99.90;;;;;;5077300;28;20078;-84
2022/06/07 07:21:51;;;;;;;6.70;1.90;;;18.10;99.90;;;;;;5077144;28;20028;-84
2022/06/07 07:24:21;;;;;;;2.80;1.80;;;19.40;99.90;;;;;;5093549;28;20047;-84
2022/06/07 07:26:52;;;;;;;3.28;1.80;;;20.20;99.90;;;;;;5077748;28;20058;-84
2022/06/07 07:29:22;;;;;;;3.75;1.83;;;20.20;99.90;;;;;;5077441;28;20406;-84
2022/06/07 07:31:50;;;;;;;3.10;1.67;;;19.80;99.90;;;;;;5077405;28;20643;-85
2022/06/07 07:34:19;;;;;;;9.65;2.10;;;19.50;99.90;;;;;;5093659;28;20024;-84
2022/06/07 07:36:50;;;;;;;4.72;1.90;;;19.10;99.90;;;;;;5077388;28;20086;-84
2022/06/07 07:39:18;;;;;;;3.63;2.00;;;18.80;99.90;;;;;;5093865;28;20074;-83
2022/06/07 07:41:47;;;;;;;2.72;2.08;;;18.70;99.90;;;;;;5077170;28;20032;-83
2022/06/07 07:44:16;;;;;;;4.00;1.67;;;18.40;99.90;;;;;;5092915;28;20032;-84
2022/06/07 07:46:47;;;;;;;4.55;2.00;;;18.50;99.90;;;;;;5077236;28;20039;-84
2022/06/07 07:49:16;;;;;;;9.45;2.00;;;18.70;99.90;;;;;;5076932;28;20035;-84
2022/06/07 07:51:45;;;;;;;3.53;1.80;;;18.80;99.90;;;;;;5077075;28;20081;-84
2022/06/07 07:54:16;;;;;;;4.85;1.92;;;19.10;99.90;;;;;;5076417;28;20036;-84
2022/06/07 07:56:42;;;;;;;4.30;2.05;;;19.20;99.90;;;;;;5093247;28;20119;-84
2022/06/07 07:59:12;;;;;;;4.07;2.30;;;19.30;99.90;;;;;;5093671;28;20016;-84
2022/06/07 08:01:39;;;;;;;2.50;2.00;;;19.00;99.90;;;;;;5093410;28;20035;-85
2022/06/07 08:04:06;;;;;;;4.93;2.00;;;18.30;99.90;;;;;;5076304;28;20069;-84
2022/06/07 08:06:39;;;;;;;4.55;2.05;;;17.80;99.90;;;;;;5076824;28;20413;-84
2022/06/07 08:09:08;;;;;;;3.70;2.28;;;17.60;99.90;;;;;;5075773;28;20036;-84
2022/06/07 08:11:37;;;;;;;2.42;1.50;;;18.00;99.90;;;;;;5094145;28;20032;-84
2022/06/07 08:14:06;;;;;;;4.97;1.92;;;18.90;99.90;;;;;;5076181;28;20425;-84
2022/06/07 08:16:32;;;;;;;4.68;1.83;;;19.80;99.90;;;;;;5093193;28;20028;-83
2022/06/07 08:18:58;;;;;;;3.85;1.38;;;20.30;99.90;;;;;;5093880;28;20031;-84
2022/06/07 08:21:26;;;;;;;2.17;1.48;;;20.80;99.90;;;;;;5092613;28;20081;-84
2022/06/07 08:23:56;;;;;;;3.03;1.60;;;21.70;99.90;;;;;;5075754;28;20032;-85
2022/06/07 08:26:23;;;;;;;2.90;1.50;;;22.20;99.90;;;;;;5092997;28;20576;-84
2022/06/07 08:28:50;;;;;;;5.80;1.50;;;23.20;99.90;;;;;;5093014;28;20383;-84
2022/06/07 08:31:19;;;;;;;3.28;1.40;;;23.90;99.90;;;;;;5075755;28;20551;-84
2022/06/07 08:39:16;;;;;;;7.22;1.70;;;24.20;99.90;;;;;;5093683;28;20020;-83
2022/06/07 08:42:15;;;;;;;3.28;1.50;;;23.30;99.90;;;;;;5075864;28;20028;-84
2022/06/07 08:45:01;;;;;;;5.35;1.83;;;22.90;99.90;;;;;;5092545;28;20028;-84
2022/06/07 08:47:38;;;;;;;4.97;2.33;;;23.20;99.90;;;;;;5092419;28;20040;-84
2022/06/07 08:50:18;;;;;;;3.05;1.75;;;24.10;99.90;;;;;;5092326;28;20062;-84
2022/06/07 08:52:44;;;;;;;3.95;1.60;;;24.60;99.90;;;;;;5075327;28;20411;-84
2022/06/07 08:55:33;;;;;;;2.65;1.33;;;24.80;99.90;;;;;;5091907;28;20028;-84
2022/06/07 08:58:37;;;;;;;2.83;1.92;;;23.90;99.90;;;;;;5075272;28;20036;-83
2022/06/07 09:01:38;;;;;;;3.92;1.25;;;24.10;99.90;;;;;;5091776;28;20394;-84
2022/06/07 09:07:51;;;;;;;2.15;1.33;;;24.60;99.90;;;;;;5094173;28;20795;-85
2022/06/07 09:13:21;;;;;;;2.42;1.02;;;25.20;99.90;;;;;;5091832;28;20147;-85
2022/06/07 09:15:50;;;;;;;3.38;1.25;;;24.90;99.90;;;;;;5075105;28;20042;-84
2022/06/07 09:18:19;;;;;;;2.45;1.10;;;25.00;99.90;;;;;;5075085;28;20024;-85
2022/06/07 09:20:48;;;;;;;5.47;1.67;;;25.30;99.90;;;;;;5075063;28;20032;-84
2022/06/07 09:23:38;;;;;;;4.00;1.20;;;24.70;99.90;;;;;;5073618;28;20433;-84
2022/06/07 09:26:27;;;;;;;4.25;1.67;;;23.10;99.90;;;;;;5091833;28;20028;-85
2022/06/07 09:29:06;;;;;;;6.65;1.40;;;21.30;99.90;;;;;;5074717;28;20047;-85
2022/06/07 09:35:41;;;;;;;4.85;1.10;;;23.10;99.90;;;;;;5093031;28;20151;-85
2022/06/07 09:38:31;;;;;;;4.43;1.60;;;24.80;99.90;;;;;;5074341;28;20024;-85
2022/06/07 09:41:36;;;;;;;7.00;1.92;;;23.70;99.90;;;;;;5090954;28;20081;-85
2022/06/07 09:44:31;;;;;;;4.43;1.85;;;22.00;99.90;;;;;;5091853;28;20517;-84
2022/06/07 09:47:02;;;;;;;2.28;1.95;;;20.60;99.90;;;;;;5074530;28;20040;-84
2022/06/07 09:49:53;;;;;;;4.90;1.70;;;20.60;99.90;;;;;;5091644;28;20093;-85
2022/06/07 09:52:23;;;;;;;;;;;20.40;99.90;;;;;;5075175;28;20849;-85
2022/06/07 09:54:58;;;;;;;4.15;2.13;;;20.00;99.90;;;;;;5091662;28;19908;-85
2022/06/07 09:57:49;;;;;;;3.88;2.30;;;19.90;99.90;;;;;;5074054;28;20149;-85
2022/06/07 10:00:54;;;;;;;10.70;1.80;;;20.90;99.90;;;;;;5074589;28;20040;-83
2022/06/07 10:03:35;;;;;;;7.18;2.17;;;22.70;99.90;;;;;;5074750;28;20028;-83
2022/06/07 10:06:07;;;;;;;6.72;1.70;;;22.80;99.90;;;;;;5091567;28;20028;-83
2022/06/07 10:08:51;;;;;;;5.72;1.90;;;22.30;99.90;;;;;;5091628;28;20050;-83
2022/06/07 10:11:42;;;;;;;5.65;2.10;;;21.50;99.90;;;;;;5091612;28;20111;-83
2022/06/07 10:14:23;;;;;;;;;;;20.80;99.90;;;;;;5091941;28;20040;-84
2022/06/07 10:16:48;;;;;;;4.65;2.55;;;20.20;99.90;;;;;;5074796;28;20420;-83
2022/06/07 10:19:34;;;;;;;4.03;1.70;;;19.40;99.90;;;;;;5074795;28;20020;-83
2022/06/07 10:22:09;;;;;;;5.03;1.88;;;19.50;99.90;;;;;;5090918;28;20067;-84
2022/06/07 10:24:50;;;;;;;5.07;1.88;;;20.50;99.90;;;;;;5089311;28;20024;-83
2022/06/07 10:27:22;;;;;;;5.82;1.65;;;20.70;99.90;;;;;;5074215;28;20032;-84
2022/06/07 10:30:15;;;;;;;5.78;1.80;;;21.00;99.90;;;;;;5073313;28;20510;-84
2022/06/07 10:32:59;;;;;;;144.63;78.43;;;21.60;99.90;;;;;;5087097;28;20495;-83
2022/06/07 10:35:50;;;;;;;45.33;22.58;;;21.90;99.90;;;;;;5090755;28;20501;-83
2022/06/07 10:38:40;;;;;;;6.38;1.92;;;21.90;99.90;;;;;;5091330;28;20630;-83
2022/06/07 10:41:20;;;;;;;3.75;1.60;;;21.90;99.90;;;;;;5090963;28;20028;-83
2022/06/07 10:43:51;;;;;;;2.20;1.35;;;22.10;99.90;;;;;;5074099;28;20032;-84
2022/06/07 10:46:20;;;;;;;3.28;1.42;;;22.60;99.90;;;;;;5076616;28;20036;-84
2022/06/07 10:49:09;;;;;;;3.70;1.70;;;22.70;99.90;;;;;;5077592;28;20031;-83
2022/06/07 10:54:49;;;;;;;3.85;1.65;;;22.90;99.90;;;;;;5094796;28;20517;-84
2022/06/07 10:57:25;;;;;;;2.28;1.45;;;23.10;99.90;;;;;;5077793;28;20554;-84
2022/06/07 11:00:26;;;;;;;2.78;1.40;;;23.80;99.90;;;;;;5094578;28;20054;-84
2022/06/07 11:03:04;;;;;;;2.28;1.67;;;24.40;99.90;;;;;;5077432;28;20031;-83
2022/06/07 11:11:27;;;;;;;1.52;1.00;;;24.00;99.90;;;;;;5093831;28;20146;-84
2022/06/07 11:13:55;;;;;;;2.05;1.30;;;24.20;99.90;;;;;;5076459;28;20075;-83
2022/06/07 11:16:44;;;;;;;1.98;1.02;;;24.40;99.90;;;;;;5094256;28;20112;-84
2022/06/07 11:19:10;;;;;;;3.92;1.45;;;24.50;99.90;;;;;;5077435;28;20035;-84
2022/06/07 11:21:42;;;;;;;4.30;1.15;;;25.10;99.90;;;;;;5077918;28;20386;-83
2022/06/07 11:24:17;;;;;;;4.88;1.33;;;25.30;99.90;;;;;;5077366;28;20069;-84
2022/06/07 11:26:50;;;;;;;2.85;1.40;;;25.50;99.90;;;;;;5077795;28;20039;-84
2022/06/07 11:29:23;;;;;;;5.40;0.93;;;25.50;99.90;;;;;;5077744;28;20032;-83
2022/06/07 11:31:49;;;;;;;4.32;1.00;;;25.50;99.40;;;;;;5077332;28;20085;-84
2022/06/07 11:34:32;;;;;;;2.05;1.00;;;25.60;99.70;;;;;;5076223;28;20066;-84
2022/06/07 11:37:07;;;;;;;1.85;1.10;;;24.90;97.50;;;;;;5093475;28;20445;-84
2022/06/07 11:39:39;;;;;;;3.92;1.52;;;24.00;99.70;;;;;;5076300;28;20506;-83
2022/06/07 11:42:13;;;;;;;3.20;1.30;;;22.80;99.90;;;;;;5076950;28;20024;-82
2022/06/07 11:44:42;;;;;;;3.25;1.55;;;21.80;99.90;;;;;;5076756;28;20027;-84
2022/06/07 11:47:08;;;;;;;4.65;1.45;;;21.40;99.90;;;;;;5077174;28;20128;-83
2022/06/07 11:50:13;;;;;;;10.77;1.52;;;21.00;99.90;;;;;;5076635;28;20542;-83
2022/06/07 11:52:56;;;;;;;4.75;1.30;;;20.90;99.90;;;;;;5094715;28;20042;-84
2022/06/07 11:55:40;;;;;;;2.55;1.17;;;20.70;99.90;;;;;;5093307;28;20075;-83
2022/06/07 11:58:07;;;;;;;4.90;1.45;;;20.80;99.90;;;;;;5075936;28;20051;-82
2022/06/07 12:00:44;;;;;;;3.30;1.30;;;20.90;99.90;;;;;;5092850;28;20043;-83
2022/06/07 12:03:24;;;;;;;3.83;1.13;;;20.80;99.90;;;;;;5075873;28;20031;-83
2022/06/07 12:05:56;;;;;;;2.80;1.50;;;21.00;99.90;;;;;;5093206;28;20050;-84
2022/06/07 12:08:51;;;;;;;3.97;1.55;;;21.20;99.90;;;;;;5093476;28;20114;-83
2022/06/07 12:11:24;;;;;;;3.83;1.45;;;21.30;99.90;;;;;;5076316;28;20063;-83
2022/06/07 12:13:56;;;;;;;2.33;1.17;;;20.90;99.90;;;;;;5075991;28;20028;-83
2022/06/07 12:16:39;;;;;;;2.55;1.15;;;21.00;99.90;;;;;;5076250;28;20043;-83
2022/06/07 12:19:17;;;;;;;3.20;1.35;;;21.10;99.90;;;;;;5093137;28;20124;-83
2022/06/07 12:21:56;;;;;;;4.10;1.50;;;21.00;99.90;;;;;;5094007;28;20028;-83
2022/06/07 12:24:23;;;;;;;5.30;1.00;;;21.10;99.90;;;;;;5092698;28;20493;-83
2022/06/07 12:26:50;;;;;;;2.58;1.30;;;21.60;99.90;;;;;;5092801;28;20035;-83
2022/06/07 12:29:23;;;;;;;2.97;1.50;;;21.90;99.90;;;;;;5093852;28;20043;-83
2022/06/07 12:31:55;;;;;;;3.03;1.40;;;22.40;99.90;;;;;;5075488;28;20059;-84
2022/06/07 12:34:30;;;;;;;3.65;1.10;;;22.60;99.90;;;;;;5091740;28;20040;-83
2022/06/07 12:37:03;;;;;;;4.78;1.50;;;22.70;99.90;;;;;;5075625;28;20039;-83
2022/06/07 12:39:30;;;;;;;5.35;1.27;;;22.60;99.90;;;;;;5092942;28;20028;-83
2022/06/07 12:41:56;;;;;;;3.08;1.33;;;22.60;99.90;;;;;;5092862;28;20566;-83
2022/06/07 12:44:26;;;;;;;4.25;1.30;;;22.40;99.90;;;;;;5092097;28;20118;-83
2022/06/07 12:46:52;;;;;;;5.85;1.20;;;22.40;99.90;;;;;;5075006;28;20084;-83
2022/06/07 12:49:31;;;;;;;2.25;1.17;;;22.70;99.90;;;;;;5091898;28;20036;-84
2022/06/07 12:52:06;;;;;;;2.60;1.38;;;22.80;99.90;;;;;;5075464;28;20051;-84
2022/06/07 12:54:33;;;;;;;6.07;1.30;;;22.90;99.90;;;;;;5075731;28;20102;-83
2022/06/07 12:57:12;;;;;;;2.85;1.30;;;23.30;99.90;;;;;;5075758;28;20596;-83
2022/06/07 13:00:00;;;;;;;4.82;1.42;;;22.70;99.90;;;;;;5075878;28;20048;-83
2022/06/07 13:02:38;;;;;;;3.53;1.42;;;22.00;99.90;;;;;;5075405;28;20028;-83
2022/06/07 13:05:34;;;;;;;1.75;1.08;;;21.70;99.90;;;;;;5092008;28;20024;-83
2022/06/07 13:08:03;;;;;;;1.33;1.17;;;21.80;99.90;;;;;;5074954;28;20426;-84
2022/06/07 13:10:33;;;;;;;3.65;1.40;;;22.00;99.90;;;;;;5074688;28;20506;-83
2022/06/07 13:13:01;;;;;;;6.35;1.20;;;23.00;99.90;;;;;;5091380;28;20040;-83
2022/06/07 13:15:49;;;;;;;1.60;1.23;;;24.20;99.90;;;;;;5074734;28;20049;-84
2022/06/07 13:18:15;;;;;;;3.13;1.25;;;25.40;99.90;;;;;;5074853;28;20077;-84
2022/06/07 13:20:45;;;;;;;3.58;1.30;;;25.60;99.90;;;;;;5074998;28;20032;-84
2022/06/07 13:23:19;;;;;;;7.72;1.70;;;25.70;99.90;;;;;;5093209;28;20747;-84
2022/06/07 13:25:47;;;;;;;1.50;1.02;;;25.30;99.60;;;;;;5091900;28;20040;-83
2022/06/07 13:28:22;;;;;;;28.77;2.88;;;24.30;99.90;;;;;;5074344;28;20028;-84
2022/06/07 13:30:54;;;;;;;2.55;1.40;;;23.80;99.90;;;;;;5091236;28;20035;-83
2022/06/07 13:33:21;;;;;;;3.28;1.15;;;24.80;99.90;;;;;;5074720;28;20765;-84
2022/06/07 13:35:57;;;;;;;4.82;1.52;;;24.80;99.90;;;;;;5091644;28;20040;-83
2022/06/07 13:38:51;;;;;;;4.00;1.52;;;24.60;99.90;;;;;;5075240;28;20066;-84
2022/06/07 13:41:21;;;;;;;6.20;1.25;;;25.00;99.90;;;;;;5074764;28;20036;-84
2022/06/07 13:43:55;;;;;;;4.43;1.30;;;25.60;99.90;;;;;;5074694;28;20510;-84
2022/06/07 13:46:29;;;;;;;6.93;1.00;;;25.90;99.50;;;;;;5074932;28;20510;-84
2022/06/07 13:55:03;;;;;;;7.82;1.65;;;23.90;99.90;;;;;;5091784;28;20506;-84
2022/06/07 13:57:29;;;;;;;1.90;1.00;;;24.10;99.90;;;;;;5092270;28;20112;-83